Terminal Aerodrome Forecast
Issued by NWS

Home | Current Version | Previous Version | Text Only | Print | Product List | Glossary On
Versions: 1 2 3 4 5 6 7 8 9 10 11 12 13 14 15 16 17 18
000
FTUS44 KLZK 190900 AAA
TAFADF
TAF AMD
KADF 190918Z 1909/2006 VRB03KT P6SM OVC015
      TEMPO 1911/1915 3SM BR OVC012
     FM191600 22004KT P6SM BKN020
     FM191700 23007KT P6SM VCTS SCT020CB BKN250
     FM200100 27006KT 5SM TSRA BKN025CB OVC070=

USA.gov is the U.S. government's official web portal to all federal, state and local government web resources and services.